createdAt,value
2019-06-08T00:01:14.660Z,13.28
2019-06-08T00:03:46.050Z,10.65
2019-06-08T00:06:16.761Z,9.10
2019-06-08T00:08:47.089Z,8.68
2019-06-08T00:11:17.314Z,8.35
2019-06-08T00:13:47.426Z,13.90
2019-06-08T00:16:17.876Z,12.53
2019-06-08T00:18:48.286Z,7.25
2019-06-08T00:21:19.613Z,11.93
2019-06-08T00:23:49.845Z,10.68
2019-06-08T00:26:20.055Z,11.57
2019-06-08T00:28:50.113Z,7.47
2019-06-08T00:31:21.604Z,12.75
2019-06-08T00:33:51.968Z,10.48
2019-06-08T00:36:23.013Z,10.10
2019-06-08T00:38:53.259Z,11.38
2019-06-08T00:41:23.719Z,7.87
2019-06-08T00:43:54.109Z,10.13
2019-06-08T00:46:25.574Z,8.40
2019-06-08T00:49:09.520Z,9.30
2019-06-08T00:51:39.635Z,10.82
2019-06-08T00:54:09.770Z,17.42
2019-06-08T00:56:39.982Z,8.08
2019-06-08T00:59:10.104Z,10.82
2019-06-08T01:01:41.121Z,9.08
2019-06-08T01:04:11.241Z,14.10
2019-06-08T01:06:41.427Z,10.32
2019-06-08T01:09:11.516Z,14.10
2019-06-08T01:11:41.630Z,9.25
2019-06-08T01:14:12.660Z,9.25
2019-06-08T01:16:42.718Z,12.70
2019-06-08T01:19:12.721Z,10.35
2019-06-08T01:21:42.989Z,13.65
2019-06-08T01:24:13.071Z,13.40
2019-06-08T01:26:43.049Z,12.95
2019-06-08T01:29:13.181Z,12.78
2019-06-08T01:31:43.331Z,9.83
2019-06-08T01:34:13.324Z,10.82
2019-06-08T01:36:43.540Z,14.05
2019-06-08T01:39:13.590Z,13.98
2019-06-08T01:41:43.715Z,15.38
2019-06-08T01:44:15.032Z,14.95
2019-06-08T01:46:45.094Z,12.75
2019-06-08T01:49:15.180Z,11.38
2019-06-08T01:51:45.311Z,11.78
2019-06-08T01:54:15.550Z,13.90
2019-06-08T01:56:45.755Z,15.23
2019-06-08T01:59:15.776Z,13.08
2019-06-08T02:01:45.976Z,14.85
2019-06-08T02:04:16.011Z,11.85
2019-06-08T02:06:46.100Z,12.55
2019-06-08T02:09:18.604Z,10.15
2019-06-08T02:11:48.649Z,9.10
2019-06-08T02:14:18.632Z,12.85
2019-06-08T02:16:48.715Z,9.15
2019-06-08T02:19:18.795Z,10.72
2019-06-08T02:21:48.815Z,14.50
2019-06-08T02:24:18.908Z,9.80
2019-06-08T02:26:48.969Z,9.63
2019-06-08T02:29:18.958Z,13.62
2019-06-08T02:31:48.892Z,10.00
2019-06-08T02:34:18.882Z,9.08
2019-06-08T02:36:48.947Z,10.70
2019-06-08T02:39:18.968Z,9.83
2019-06-08T02:41:48.932Z,11.00
2019-06-08T02:44:18.964Z,7.95
2019-06-08T02:46:49.018Z,12.85
2019-06-08T02:49:18.999Z,6.97
2019-06-08T02:51:49.752Z,11.90
2019-06-08T02:54:19.958Z,9.08
2019-06-08T02:56:51.453Z,11.78
2019-06-08T02:59:22.861Z,12.00
2019-06-08T03:01:54.577Z,17.65
2019-06-08T03:04:25.896Z,10.93
2019-06-08T03:06:57.651Z,12.70
2019-06-08T03:09:28.068Z,9.65
2019-06-08T03:11:59.012Z,11.63
2019-06-08T03:14:29.014Z,10.35
2019-06-08T03:16:59.008Z,10.70
2019-06-08T03:19:29.076Z,10.75
2019-06-08T03:21:59.077Z,10.20
2019-06-08T03:24:29.208Z,10.03
2019-06-08T03:27:00.321Z,9.90
2019-06-08T03:29:30.372Z,10.63
2019-06-08T03:32:00.867Z,12.25
2019-06-08T03:34:31.036Z,14.28
2019-06-08T03:37:01.042Z,9.83
2019-06-08T03:39:31.259Z,11.57
2019-06-08T03:42:01.300Z,15.45
2019-06-08T03:44:31.396Z,11.88
2019-06-08T03:47:01.411Z,12.28
2019-06-08T03:49:43.046Z,10.08
2019-06-08T03:52:03.217Z,9.10
2019-06-08T03:54:36.139Z,12.37
2019-06-08T03:57:06.137Z,9.48
2019-06-08T03:59:36.167Z,10.68
2019-06-08T04:02:06.248Z,11.57
2019-06-08T04:04:37.789Z,11.90
2019-06-08T04:07:07.936Z,8.23
2019-06-08T04:09:39.723Z,11.55
2019-06-08T04:12:10.537Z,18.15
2019-06-08T04:14:42.136Z,12.33
2019-06-08T04:17:12.457Z,9.13
2019-06-08T04:20:05.412Z,9.38
2019-06-08T04:22:14.655Z,9.08
2019-06-08T04:24:45.130Z,8.55
2019-06-08T04:27:17.192Z,11.15
2019-06-08T04:29:47.292Z,8.45
2019-06-08T04:32:17.547Z,11.80
2019-06-08T04:34:47.980Z,7.87
2019-06-08T04:37:19.262Z,7.75
2019-06-08T04:39:50.880Z,8.20
2019-06-08T04:42:21.115Z,13.28
2019-06-08T04:44:51.117Z,7.25
2019-06-08T04:47:21.139Z,11.00
2019-06-08T04:49:51.128Z,8.90
2019-06-08T04:52:21.149Z,9.93
2019-06-08T04:54:51.186Z,9.30
2019-06-08T04:57:21.402Z,7.37
2019-06-08T04:59:51.628Z,8.68
2019-06-08T05:02:21.775Z,6.22
2019-06-08T05:04:51.757Z,6.55
2019-06-08T05:07:21.796Z,7.53
2019-06-08T05:09:52.041Z,9.00
2019-06-08T05:12:22.120Z,6.90
2019-06-08T05:14:52.499Z,9.70
2019-06-08T05:17:22.949Z,6.75
2019-06-08T05:19:52.891Z,6.50
2019-06-08T05:22:22.989Z,7.33
2019-06-08T05:24:52.978Z,9.65
2019-06-08T05:27:22.791Z,10.40
2019-06-08T05:29:53.876Z,7.30
2019-06-08T05:32:24.415Z,7.25
2019-06-08T05:34:54.648Z,6.95
2019-06-08T05:37:24.719Z,10.15
2019-06-08T05:39:54.637Z,9.78
2019-06-08T05:42:24.696Z,9.60
2019-06-08T05:44:55.565Z,9.53
2019-06-08T05:47:25.585Z,6.28
2019-06-08T05:49:55.795Z,7.22
2019-06-08T05:52:25.561Z,8.23
2019-06-08T05:54:55.362Z,10.25
2019-06-08T05:57:25.425Z,6.85
2019-06-08T05:59:55.673Z,10.55
2019-06-08T06:02:25.794Z,9.30
2019-06-08T06:04:55.594Z,9.60
2019-06-08T06:07:25.504Z,10.55
2019-06-08T06:09:55.347Z,8.98
2019-06-08T06:12:25.440Z,7.90
2019-06-08T06:14:55.181Z,6.75
2019-06-08T06:17:25.284Z,5.67
2019-06-08T06:19:55.072Z,6.47
2019-06-08T06:22:24.821Z,5.08
2019-06-08T06:24:55.017Z,5.95
2019-06-08T06:27:24.846Z,5.33
2019-06-08T06:29:54.620Z,5.03
2019-06-08T06:32:24.365Z,5.17
2019-06-08T06:34:54.128Z,5.22
2019-06-08T06:37:24.009Z,5.45
2019-06-08T06:39:53.740Z,7.37
2019-06-08T06:42:25.023Z,6.03
2019-06-08T06:44:54.979Z,8.18
2019-06-08T06:47:24.815Z,4.47
2019-06-08T06:49:54.685Z,5.65
2019-06-08T06:52:24.473Z,6.00
2019-06-08T06:54:54.531Z,5.60
2019-06-08T06:57:24.274Z,7.25
2019-06-08T06:59:54.240Z,7.72
2019-06-08T07:02:25.030Z,7.97
2019-06-08T07:04:55.006Z,6.35
2019-06-08T07:07:24.743Z,6.97
2019-06-08T07:09:54.931Z,6.00
2019-06-08T07:12:25.110Z,4.85
2019-06-08T07:14:55.522Z,7.35
2019-06-08T07:17:25.540Z,6.12
2019-06-08T07:19:55.290Z,4.47
2019-06-08T07:22:25.434Z,5.72
2019-06-08T07:24:55.262Z,5.47
2019-06-08T07:27:25.042Z,7.10
2019-06-08T07:29:54.922Z,5.70
2019-06-08T07:32:24.720Z,5.70
2019-06-08T07:34:55.339Z,5.15
2019-06-08T07:37:25.309Z,5.53
2019-06-08T07:39:56.120Z,7.00
2019-06-08T07:42:26.172Z,5.08
2019-06-08T07:44:55.940Z,5.55
2019-06-08T07:47:25.672Z,7.47
2019-06-08T07:49:55.656Z,4.25
2019-06-08T07:52:25.580Z,6.35
2019-06-08T07:54:56.673Z,5.40
2019-06-08T07:57:26.667Z,6.62
2019-06-08T07:59:56.511Z,6.08
2019-06-08T08:02:26.357Z,4.70
2019-06-08T08:04:56.789Z,8.50
2019-06-08T08:07:26.653Z,4.25
2019-06-08T08:09:56.981Z,6.50
2019-06-08T08:12:26.976Z,8.55
2019-06-08T08:14:58.083Z,4.62
2019-06-08T08:17:28.255Z,6.78
2019-06-08T08:19:59.323Z,7.60
2019-06-08T08:22:29.746Z,5.85
2019-06-08T08:25:04.140Z,4.97
2019-06-08T08:27:31.284Z,6.95
2019-06-08T08:30:02.108Z,5.08
2019-06-08T08:32:32.448Z,6.17
2019-06-08T08:35:02.970Z,4.80
2019-06-08T08:37:33.085Z,7.97
2019-06-08T08:40:02.834Z,5.17
2019-06-08T08:42:32.669Z,6.60
2019-06-08T08:45:05.134Z,5.90
2019-06-08T08:47:34.279Z,8.68
2019-06-08T08:50:04.626Z,10.72
2019-06-08T08:52:39.857Z,5.80
2019-06-08T08:55:08.371Z,8.08
2019-06-08T08:57:41.704Z,10.80
2019-06-08T09:00:10.345Z,6.20
2019-06-08T09:02:40.125Z,6.05
2019-06-08T09:05:11.283Z,8.15
2019-06-08T09:07:41.121Z,6.25
2019-06-08T09:10:11.786Z,6.95
2019-06-08T09:12:41.756Z,7.60
2019-06-08T09:15:11.569Z,6.53
2019-06-08T09:17:41.348Z,7.40
2019-06-08T09:20:15.316Z,8.28
2019-06-08T09:22:56.234Z,6.12
2019-06-08T09:25:14.734Z,6.47
2019-06-08T09:27:44.957Z,8.85
2019-06-08T09:30:14.808Z,8.78
2019-06-08T09:32:44.650Z,6.05
2019-06-08T09:35:14.408Z,5.62
2019-06-08T09:37:44.247Z,6.67
2019-06-08T09:40:14.354Z,7.58
2019-06-08T09:42:46.588Z,6.55
2019-06-08T09:45:18.186Z,5.22
2019-06-08T09:47:48.329Z,6.25
2019-06-08T09:50:18.692Z,6.65
2019-06-08T09:52:48.849Z,9.45
2019-06-08T09:55:19.238Z,7.72
2019-06-08T09:57:48.991Z,6.35
2019-06-08T10:00:25.298Z,6.42
2019-06-08T10:02:51.843Z,6.45
2019-06-08T10:05:24.011Z,6.45
2019-06-08T10:07:54.482Z,10.60
2019-06-08T10:10:24.418Z,6.47
2019-06-08T10:12:59.216Z,8.23
2019-06-08T10:15:27.899Z,6.35
2019-06-08T10:17:58.936Z,5.92
2019-06-08T10:20:30.895Z,4.97
2019-06-08T10:23:03.138Z,7.40
2019-06-08T10:25:32.354Z,8.75
2019-06-08T10:28:07.826Z,5.03
2019-06-08T10:30:34.482Z,7.78
2019-06-08T10:33:07.121Z,4.17
2019-06-08T10:35:38.257Z,6.37
2019-06-08T10:38:11.646Z,5.22
2019-06-08T10:41:01.238Z,5.25
2019-06-08T10:43:31.262Z,8.83
2019-06-08T10:46:08.403Z,5.60
2019-06-08T10:48:33.412Z,5.50
2019-06-08T10:51:05.441Z,7.47
2019-06-08T10:53:46.424Z,6.33
2019-06-08T10:56:10.375Z,5.95
2019-06-08T10:58:38.294Z,7.30
2019-06-08T11:01:12.111Z,6.53
2019-06-08T11:03:39.845Z,7.87
2019-06-08T11:06:12.971Z,6.25
2019-06-08T11:08:42.139Z,8.35
2019-06-08T11:11:12.091Z,7.17
2019-06-08T11:13:42.351Z,9.43
2019-06-08T11:16:13.635Z,6.75
2019-06-08T11:18:43.950Z,8.58
2019-06-08T11:21:13.955Z,7.10
2019-06-08T11:23:59.866Z,7.65
2019-06-08T11:26:23.848Z,9.38
2019-06-08T11:28:51.983Z,7.28
2019-06-08T11:31:22.919Z,6.50
2019-06-08T11:33:54.231Z,8.85
2019-06-08T11:36:25.189Z,9.15
2019-06-08T11:39:00.269Z,7.40
2019-06-08T11:41:31.474Z,8.08
2019-06-08T11:44:03.856Z,11.25
2019-06-08T11:46:38.093Z,7.30
2019-06-08T11:49:11.705Z,6.10
2019-06-08T11:51:41.787Z,6.37
2019-06-08T11:54:29.649Z,10.48
2019-06-08T11:56:48.222Z,6.35
2019-06-08T11:59:20.370Z,6.33
2019-06-08T12:01:51.896Z,9.10
2019-06-08T12:04:23.079Z,10.28
2019-06-08T12:06:54.308Z,8.05
2019-06-08T12:09:24.867Z,6.37
2019-06-08T12:11:55.441Z,11.33
2019-06-08T12:14:26.144Z,6.62
2019-06-08T12:17:01.386Z,5.95
2019-06-08T12:19:31.735Z,9.30
2019-06-08T12:22:03.955Z,9.70
2019-06-08T12:24:42.074Z,8.38
2019-06-08T12:27:14.417Z,6.78
2019-06-08T12:29:39.254Z,6.85
2019-06-08T12:32:12.093Z,5.95
2019-06-08T12:34:42.134Z,8.65
2019-06-08T12:37:17.473Z,8.38
2019-06-08T12:39:45.121Z,6.37
2019-06-08T12:42:20.784Z,7.50
2019-06-08T12:44:49.431Z,7.97
2019-06-08T12:47:24.752Z,8.35
2019-06-08T12:49:53.740Z,6.65
2019-06-08T12:52:24.985Z,9.55
2019-06-08T12:55:03.502Z,7.20
2019-06-08T12:57:28.550Z,9.35
2019-06-08T13:00:00.585Z,9.65
2019-06-08T13:02:32.684Z,6.55
2019-06-08T13:05:03.873Z,7.62
2019-06-08T13:07:34.686Z,6.40
2019-06-08T13:10:06.357Z,6.70
2019-06-08T13:12:40.686Z,8.40
2019-06-08T13:15:10.060Z,9.05
2019-06-08T13:17:41.863Z,7.83
2019-06-08T13:20:22.117Z,13.30
2019-06-08T13:22:51.782Z,7.70
2019-06-08T13:25:36.135Z,9.63
2019-06-08T13:27:55.081Z,10.70
2019-06-08T13:30:28.917Z,9.78
2019-06-08T13:32:58.513Z,10.03
2019-06-08T13:35:30.657Z,5.92
2019-06-08T13:38:01.460Z,7.12
2019-06-08T13:40:31.400Z,7.50
2019-06-08T13:43:02.387Z,9.05
2019-06-08T13:45:32.487Z,7.85
2019-06-08T13:48:03.547Z,7.05
2019-06-08T13:50:34.291Z,11.08
2019-06-08T13:53:04.998Z,9.30
2019-06-08T13:55:48.401Z,6.33
2019-06-08T13:58:08.952Z,7.15
2019-06-08T14:00:39.802Z,8.00
2019-06-08T14:03:10.563Z,14.98
2019-06-08T14:05:42.000Z,12.37
2019-06-08T14:08:12.603Z,9.50
2019-06-08T14:10:43.907Z,5.62
2019-06-08T14:13:15.189Z,7.22
2019-06-08T14:15:48.747Z,8.70
2019-06-08T14:18:25.827Z,10.80
2019-06-08T14:20:50.324Z,7.30
2019-06-08T14:23:22.619Z,5.87
2019-06-08T14:25:56.695Z,10.40
2019-06-08T14:28:24.830Z,8.30
2019-06-08T14:30:55.662Z,6.40
2019-06-08T14:33:31.733Z,6.95
2019-06-08T14:35:59.628Z,6.03
2019-06-08T14:38:38.562Z,7.00
2019-06-08T14:41:07.466Z,9.55
2019-06-08T14:43:38.165Z,9.23
2019-06-08T14:46:10.344Z,8.73
2019-06-08T14:48:41.277Z,8.80
2019-06-08T14:51:12.451Z,7.03
2019-06-08T14:53:43.292Z,8.63
2019-06-08T14:56:13.789Z,7.28
2019-06-08T14:58:44.721Z,8.88
2019-06-08T15:01:19.431Z,9.48
2019-06-08T15:03:48.665Z,11.78
2019-06-08T15:06:19.743Z,7.15
2019-06-08T15:08:50.841Z,7.10
2019-06-08T15:11:21.607Z,11.80
2019-06-08T15:13:52.677Z,6.47
2019-06-08T15:16:23.674Z,7.53
2019-06-08T15:18:54.826Z,9.68
2019-06-08T15:21:26.500Z,6.85
2019-06-08T15:23:57.878Z,7.30
2019-06-08T15:26:36.477Z,7.10
2019-06-08T15:29:00.328Z,10.95
2019-06-08T15:31:32.662Z,7.50
2019-06-08T15:34:04.323Z,10.58
2019-06-08T15:36:34.968Z,5.20
2019-06-08T15:39:07.961Z,6.70
2019-06-08T15:41:38.958Z,8.35
2019-06-08T15:44:09.702Z,8.83
2019-06-08T15:46:41.107Z,7.85
2019-06-08T15:49:12.244Z,7.17
2019-06-08T15:51:43.401Z,5.65
2019-06-08T15:54:14.328Z,6.78
2019-06-08T15:56:51.835Z,9.00
2019-06-08T15:59:18.792Z,5.95
2019-06-08T16:01:50.052Z,6.90
2019-06-08T16:04:21.050Z,6.83
2019-06-08T16:06:51.654Z,7.95
2019-06-08T16:09:22.125Z,10.23
2019-06-08T16:11:52.705Z,6.53
2019-06-08T16:14:24.599Z,7.97
2019-06-08T16:16:55.588Z,6.33
2019-06-08T16:19:27.470Z,11.10
2019-06-08T16:21:59.514Z,8.38
2019-06-08T16:24:31.891Z,8.40
2019-06-08T16:27:02.518Z,6.87
2019-06-08T16:29:33.371Z,8.45
2019-06-08T16:32:04.187Z,9.48
2019-06-08T16:34:35.596Z,6.95
2019-06-08T16:37:07.219Z,5.97
2019-06-08T16:39:39.029Z,7.47
2019-06-08T16:42:09.879Z,6.40
2019-06-08T16:44:40.517Z,7.62
2019-06-08T16:47:11.568Z,8.45
2019-06-08T16:49:42.790Z,6.45
2019-06-08T16:52:17.068Z,9.75
2019-06-08T16:54:45.997Z,7.72
2019-06-08T16:57:17.646Z,17.12
2019-06-08T16:59:47.593Z,10.00
2019-06-08T17:02:17.940Z,7.87
2019-06-08T17:04:48.282Z,8.78
2019-06-08T17:07:19.804Z,10.25
2019-06-08T17:09:50.516Z,8.95
2019-06-08T17:12:20.800Z,8.85
2019-06-08T17:14:51.434Z,10.18
2019-06-08T17:17:21.756Z,8.60
2019-06-08T17:19:51.837Z,7.95
2019-06-08T17:22:21.681Z,8.70
2019-06-08T17:24:52.161Z,8.33
2019-06-08T17:27:26.674Z,8.15
2019-06-08T17:29:54.500Z,10.60
2019-06-08T17:32:24.813Z,8.93
2019-06-08T17:34:54.639Z,7.37
2019-06-08T17:37:24.704Z,6.67
2019-06-08T17:39:54.781Z,8.38
2019-06-08T17:42:24.618Z,9.15
2019-06-08T17:44:54.725Z,10.20
2019-06-08T17:47:24.938Z,10.38
2019-06-08T17:49:55.458Z,9.93
2019-06-08T17:52:27.884Z,8.28
2019-06-08T17:54:56.647Z,8.33
2019-06-08T17:57:41.181Z,7.45
2019-06-08T17:59:58.689Z,9.60
2019-06-08T18:02:31.306Z,7.95
2019-06-08T18:05:00.220Z,8.28
2019-06-08T18:07:30.032Z,7.28
2019-06-08T18:09:59.913Z,10.35
2019-06-08T18:12:29.765Z,11.85
2019-06-08T18:14:59.946Z,11.88
2019-06-08T18:17:29.740Z,11.75
2019-06-08T18:19:59.624Z,12.75
2019-06-08T18:22:30.552Z,9.40
2019-06-08T18:25:00.451Z,11.78
2019-06-08T18:27:30.320Z,12.18
2019-06-08T18:30:08.006Z,12.00
2019-06-08T18:32:33.148Z,9.85
2019-06-08T18:35:03.170Z,11.33
2019-06-08T18:37:33.180Z,10.70
2019-06-08T18:40:04.467Z,11.90
2019-06-08T18:42:35.010Z,9.98
2019-06-08T18:45:07.292Z,8.85
2019-06-08T18:47:40.185Z,11.50
2019-06-08T18:50:09.342Z,11.12
2019-06-08T18:52:41.862Z,12.78
2019-06-08T18:55:10.890Z,14.40
2019-06-08T18:57:41.462Z,13.83
2019-06-08T19:00:12.977Z,12.88
2019-06-08T19:02:44.932Z,13.98
2019-06-08T19:05:14.393Z,13.08
2019-06-08T19:07:45.521Z,12.30
2019-06-08T19:10:18.713Z,14.63
2019-06-08T19:12:49.103Z,11.03
2019-06-08T19:15:21.370Z,13.10
2019-06-08T19:17:54.420Z,13.20
2019-06-08T19:20:23.176Z,11.48
2019-06-08T19:22:54.369Z,14.55
2019-06-08T19:25:24.397Z,12.68
2019-06-08T19:27:54.273Z,16.00
2019-06-08T19:30:24.966Z,12.00
2019-06-08T19:32:54.880Z,12.40
2019-06-08T19:35:24.725Z,13.15
2019-06-08T19:37:54.589Z,13.83
2019-06-08T19:40:24.403Z,10.32
2019-06-08T19:42:57.992Z,11.73
2019-06-08T19:45:27.552Z,11.30
2019-06-08T19:47:57.736Z,14.80
2019-06-08T19:50:28.734Z,9.25
2019-06-08T19:52:58.876Z,16.40
2019-06-08T19:55:28.707Z,23.18
2019-06-08T19:57:58.532Z,28.98
2019-06-08T20:00:28.444Z,14.07
2019-06-08T20:02:58.511Z,19.17
2019-06-08T20:05:28.680Z,15.15
2019-06-08T20:07:58.880Z,12.35
2019-06-08T20:10:28.864Z,13.45
2019-06-08T20:12:58.880Z,11.03
2019-06-08T20:15:28.721Z,12.80
2019-06-08T20:17:58.711Z,13.15
2019-06-08T20:20:30.420Z,11.68
2019-06-08T20:23:00.473Z,11.80
2019-06-08T20:25:30.310Z,12.88
2019-06-08T20:28:00.123Z,15.30
2019-06-08T20:30:29.997Z,13.25
2019-06-08T20:32:59.855Z,15.53
2019-06-08T20:35:29.972Z,15.50
2019-06-08T20:37:59.724Z,13.08
2019-06-08T20:40:29.484Z,11.85
2019-06-08T20:42:59.236Z,11.43
2019-06-08T20:45:29.059Z,14.70
2019-06-08T20:47:59.045Z,12.70
2019-06-08T20:50:28.809Z,12.95
2019-06-08T20:52:58.783Z,11.50
2019-06-08T20:55:28.789Z,12.05
2019-06-08T20:57:58.844Z,9.48
2019-06-08T21:00:28.741Z,13.13
2019-06-08T21:03:02.839Z,11.33
2019-06-08T21:05:30.617Z,11.03
2019-06-08T21:08:00.824Z,12.18
2019-06-08T21:10:33.368Z,13.35
2019-06-08T21:13:03.470Z,12.00
2019-06-08T21:15:33.242Z,12.35
2019-06-08T21:18:03.105Z,12.28
2019-06-08T21:20:32.861Z,11.97
2019-06-08T21:23:02.642Z,14.90
2019-06-08T21:25:32.594Z,14.35
2019-06-08T21:28:02.447Z,15.83
2019-06-08T21:30:32.301Z,13.13
2019-06-08T21:33:02.451Z,15.72
2019-06-08T21:35:33.332Z,16.60
2019-06-08T21:38:03.276Z,12.88
2019-06-08T21:40:33.113Z,13.83
2019-06-08T21:43:02.964Z,11.93
2019-06-08T21:45:34.044Z,11.43
2019-06-08T21:48:03.856Z,14.05
2019-06-08T21:50:33.695Z,9.43
2019-06-08T21:53:03.669Z,10.88
2019-06-08T21:55:33.647Z,12.45
2019-06-08T21:58:03.689Z,11.08
2019-06-08T22:00:40.576Z,12.18
2019-06-08T22:03:08.672Z,12.65
2019-06-08T22:05:38.819Z,13.18
2019-06-08T22:08:08.925Z,12.65
2019-06-08T22:10:38.733Z,11.73
2019-06-08T22:13:11.705Z,11.40
2019-06-08T22:15:40.493Z,9.48
2019-06-08T22:18:18.427Z,10.58
2019-06-08T22:20:48.305Z,10.60
2019-06-08T22:23:18.416Z,9.48
2019-06-08T22:25:48.564Z,9.68
2019-06-08T22:28:18.712Z,10.60
2019-06-08T22:30:48.603Z,10.18
2019-06-08T22:33:18.421Z,11.65
2019-06-08T22:35:48.223Z,12.00
2019-06-08T22:38:17.976Z,10.75
2019-06-08T22:40:48.054Z,9.88
2019-06-08T22:43:21.806Z,10.25
2019-06-08T22:45:50.300Z,11.35
2019-06-08T22:48:20.328Z,13.55
2019-06-08T22:50:50.107Z,10.95
2019-06-08T22:53:20.184Z,11.88
2019-06-08T22:55:50.044Z,12.07
2019-06-08T22:58:19.937Z,14.78
2019-06-08T23:00:52.972Z,11.05
2019-06-08T23:03:21.443Z,13.70
2019-06-08T23:05:51.502Z,12.90
2019-06-08T23:08:21.599Z,11.53
2019-06-08T23:10:52.736Z,11.78
2019-06-08T23:13:22.880Z,12.70
2019-06-08T23:15:52.907Z,12.55
2019-06-08T23:18:22.912Z,13.25
2019-06-08T23:20:53.065Z,10.98
2019-06-08T23:23:23.049Z,15.60
2019-06-08T23:25:53.182Z,13.62
2019-06-08T23:28:23.327Z,12.60
2019-06-08T23:31:07.945Z,13.38
2019-06-08T23:33:27.775Z,12.60
2019-06-08T23:36:33.508Z,12.20
2019-06-08T23:38:28.417Z,14.38
2019-06-08T23:41:00.544Z,11.35
2019-06-08T23:43:30.084Z,11.03
2019-06-08T23:46:01.223Z,11.85
2019-06-08T23:48:31.744Z,12.70
2019-06-08T23:51:02.293Z,10.18
2019-06-08T23:53:32.428Z,12.03
2019-06-08T23:56:03.809Z,13.03
2019-06-08T23:58:34.071Z,10.85
